This is the latest recevied weather packets stored in our database for station/object SP9KB-13. If no packets are shown the sender has not sent any weather packets the latest 10 day(s).
| Time | Temp. | Humidity | Pressure | Rain* | Wind** | Luminosity | Snow |
|---|---|---|---|---|---|---|---|
| 1777806933 | 20° C | 36% | 1001.4 hPa | 0 mm | - | - | - |
| 1777806632 | 21.11° C | 34% | 1001.5 hPa | 0 mm | - | - | - |
| 1777806331 | 20.56° C | 37% | 1001.7 hPa | 0 mm | - | - | - |
| 1777806031 | 21.11° C | 36% | 1001.6 hPa | 0 mm | - | - | - |
| 1777805730 | 20.56° C | 36% | 1001.8 hPa | 0 mm | - | - | - |
| 1777805429 | 20° C | 36% | 1001.9 hPa | 0 mm | - | - | - |
| 1777805129 | 19.44° C | 38% | 1001.8 hPa | 0 mm | - | - | - |
| 1777804828 | 20° C | 37% | 1002.1 hPa | 0 mm | - | - | - |
| 1777804527 | 20° C | 37% | 1001.9 hPa | 0 mm | - | - | - |
| 1777804227 | 18.89° C | 41% | 1001.8 hPa | 0 mm | - | - | - |
| 1777803926 | 19.44° C | 37% | 1002.1 hPa | 0 mm | - | - | - |
| 1777803625 | 18.89° C | 37% | 1002 hPa | 0 mm | - | - | - |
| 1777803325 | 19.44° C | 37% | 1002.1 hPa | 0 mm | - | - | - |
| 1777803024 | 20° C | 37% | 1002.2 hPa | 0 mm | - | - | - |
| 1777802723 | 19.44° C | 37% | 1002.1 hPa | 0 mm | - | - | - |
| 1777802423 | 18.33° C | 42% | 1002.3 hPa | 0 mm | - | - | - |
| 1777802121 | 18.89° C | 40% | 1002 hPa | 0 mm | - | - | - |
| 1777801820 | 18.89° C | 41% | 1002.2 hPa | 0 mm | - | - | - |
| 1777801519 | 18.33° C | 40% | 1002.4 hPa | 0 mm | - | - | - |
| 1777800918 | 17.78° C | 41% | 1002.3 hPa | 0 mm | - | - | - |
| 1777800617 | 18.89° C | 41% | 1002.4 hPa | 0 mm | - | - | - |
| 1777800317 | 18.33° C | 41% | 1002.4 hPa | 0 mm | - | - | - |
| 1777800016 | 18.33° C | 40% | 1002.5 hPa | 0 mm | - | - | - |
| 1777799715 | 18.33° C | 40% | 1002.6 hPa | 0 mm | - | - | - |
| 1777799415 | 18.89° C | 40% | 1002.5 hPa | 0 mm | - | - | - |
* Rain latest hour (hover to see other rain measurements)
** Current wind speed in m/s (hover to see current wind gust speed)